Get Adobe Flash player

 

Der Hanseatische Fliegerclub Berlin e.V. ist Teil im Betriebssportangebot der Deutschen Lufthansa AG.

Er steht neben den bei der Lufthansa AG Beschäftigten, allen fliegerisch interessierten Personen offen und bietet seinen Mitgliedern z.B die preiswerte Ausbildung zum Privatpiloten (EASA(A)) an.

Äußerst qualifizierte und engagierte Theorie- und Fluglehrer (darunter auch Berufspiloten der LH und AIR BERLIN) verhelfen zu hohem Ausbildungsstand mit professionellem Praxisbezug.

Öffnungszeiten EDAZ: Sommer: 08:00 bis 20:30 Uhr local Winter: 08:00 bis 19:00 Uhr local (andere Zeiten PPR) Flugleitung/Tower: Tel 033731 305 30

Aktuelle Flugstundenpreise für unsere Mitglieder: Cessna 152 – DEAEF 101,72 € pro Flugstunde Cessna 172 – DELKN 149,14 € pro Flugstunde Piper PA-28 – DEFEJ 145,14 € pro Flugstunde

Current METAR for EDDB
EDDB 302150Z 09003KT CAVOK 15/15 Q1008 NOSIG
Banner